sensor_id;sensor_type;location;lat;lon;timestamp;P1;durP1;ratioP1;P2;durP2;ratioP2
21587;SDS011;10956;48.878;13.316;2022-08-01T00:00:09;3.93;;;2.00;;
21587;SDS011;10956;48.878;13.316;2022-08-01T00:02:36;1.73;;;1.60;;
21587;SDS011;10956;48.878;13.316;2022-08-01T00:05:05;1.73;;;1.63;;
21587;SDS011;10956;48.878;13.316;2022-08-01T00:07:32;1.80;;;1.70;;
21587;SDS011;10956;48.878;13.316;2022-08-01T00:09:58;1.67;;;1.57;;
21587;SDS011;10956;48.878;13.316;2022-08-01T00:12:23;1.73;;;1.63;;
21587;SDS011;10956;48.878;13.316;2022-08-01T00:14:48;1.63;;;1.53;;
21587;SDS011;10956;48.878;13.316;2022-08-01T00:17:14;3.43;;;1.90;;
21587;SDS011;10956;48.878;13.316;2022-08-01T00:19:40;1.77;;;1.60;;
21587;SDS011;10956;48.878;13.316;2022-08-01T00:22:05;1.70;;;1.60;;
21587;SDS011;10956;48.878;13.316;2022-08-01T00:24:30;1.67;;;1.57;;
21587;SDS011;10956;48.878;13.316;2022-08-01T00:26:56;2.10;;;1.60;;
21587;SDS011;10956;48.878;13.316;2022-08-01T00:29:21;1.90;;;1.50;;
21587;SDS011;10956;48.878;13.316;2022-08-01T00:31:47;1.77;;;1.60;;
21587;SDS011;10956;48.878;13.316;2022-08-01T00:34:12;1.50;;;1.40;;
21587;SDS011;10956;48.878;13.316;2022-08-01T00:36:38;1.87;;;1.77;;
21587;SDS011;10956;48.878;13.316;2022-08-01T00:39:03;1.80;;;1.70;;
21587;SDS011;10956;48.878;13.316;2022-08-01T00:41:28;1.93;;;1.53;;
21587;SDS011;10956;48.878;13.316;2022-08-01T00:43:54;1.70;;;1.60;;
21587;SDS011;10956;48.878;13.316;2022-08-01T00:46:19;2.07;;;1.80;;
21587;SDS011;10956;48.878;13.316;2022-08-01T00:48:45;2.10;;;1.63;;
21587;SDS011;10956;48.878;13.316;2022-08-01T00:51:10;1.97;;;1.70;;
21587;SDS011;10956;48.878;13.316;2022-08-01T00:53:36;1.80;;;1.70;;
21587;SDS011;10956;48.878;13.316;2022-08-01T00:56:02;1.73;;;1.60;;
21587;SDS011;10956;48.878;13.316;2022-08-01T00:58:28;1.70;;;1.60;;
21587;SDS011;10956;48.878;13.316;2022-08-01T01:00:56;2.30;;;1.67;;
21587;SDS011;10956;48.878;13.316;2022-08-01T01:03:22;2.10;;;1.97;;
21587;SDS011;10956;48.878;13.316;2022-08-01T01:05:52;1.93;;;1.70;;
21587;SDS011;10956;48.878;13.316;2022-08-01T01:08:30;1.90;;;1.70;;
21587;SDS011;10956;48.878;13.316;2022-08-01T01:11:04;2.83;;;1.50;;
21587;SDS011;10956;48.878;13.316;2022-08-01T01:13:37;1.90;;;1.50;;
21587;SDS011;10956;48.878;13.316;2022-08-01T01:16:14;1.50;;;1.40;;
21587;SDS011;10956;48.878;13.316;2022-08-01T01:18:53;1.87;;;1.77;;
21587;SDS011;10956;48.878;13.316;2022-08-01T01:23:50;1.70;;;1.60;;
21587;SDS011;10956;48.878;13.316;2022-08-01T01:26:36;1.70;;;1.60;;
21587;SDS011;10956;48.878;13.316;2022-08-01T01:29:17;2.13;;;1.73;;
21587;SDS011;10956;48.878;13.316;2022-08-01T01:31:50;1.90;;;1.80;;
21587;SDS011;10956;48.878;13.316;2022-08-01T01:34:37;1.63;;;1.53;;
21587;SDS011;10956;48.878;13.316;2022-08-01T01:37:06;1.70;;;1.60;;
21587;SDS011;10956;48.878;13.316;2022-08-01T01:39:34;1.70;;;1.60;;
21587;SDS011;10956;48.878;13.316;2022-08-01T01:42:03;1.70;;;1.37;;
21587;SDS011;10956;48.878;13.316;2022-08-01T01:44:30;1.80;;;1.70;;
21587;SDS011;10956;48.878;13.316;2022-08-01T01:46:57;1.80;;;1.70;;
21587;SDS011;10956;48.878;13.316;2022-08-01T01:49:25;2.00;;;1.90;;
21587;SDS011;10956;48.878;13.316;2022-08-01T01:51:56;1.83;;;1.73;;
21587;SDS011;10956;48.878;13.316;2022-08-01T01:54:24;2.10;;;1.90;;
21587;SDS011;10956;48.878;13.316;2022-08-01T01:56:54;2.43;;;1.83;;
21587;SDS011;10956;48.878;13.316;2022-08-01T01:59:24;1.67;;;1.57;;
21587;SDS011;10956;48.878;13.316;2022-08-01T02:01:53;2.30;;;1.60;;
21587;SDS011;10956;48.878;13.316;2022-08-01T02:04:21;1.80;;;1.70;;
21587;SDS011;10956;48.878;13.316;2022-08-01T02:06:49;2.27;;;1.93;;
21587;SDS011;10956;48.878;13.316;2022-08-01T02:09:17;1.80;;;1.70;;
21587;SDS011;10956;48.878;13.316;2022-08-01T02:11:44;1.53;;;1.43;;
21587;SDS011;10956;48.878;13.316;2022-08-01T02:14:12;1.70;;;1.60;;
21587;SDS011;10956;48.878;13.316;2022-08-01T02:16:40;1.60;;;1.50;;
21587;SDS011;10956;48.878;13.316;2022-08-01T02:19:07;1.50;;;1.40;;
21587;SDS011;10956;48.878;13.316;2022-08-01T02:21:46;1.87;;;1.57;;
21587;SDS011;10956;48.878;13.316;2022-08-01T02:24:16;1.97;;;1.83;;
21587;SDS011;10956;48.878;13.316;2022-08-01T02:26:49;2.03;;;1.93;;
21587;SDS011;10956;48.878;13.316;2022-08-01T02:29:20;3.30;;;1.97;;
21587;SDS011;10956;48.878;13.316;2022-08-01T02:31:49;1.93;;;1.73;;
21587;SDS011;10956;48.878;13.316;2022-08-01T02:34:19;1.80;;;1.70;;
21587;SDS011;10956;48.878;13.316;2022-08-01T02:36:47;1.70;;;1.60;;
21587;SDS011;10956;48.878;13.316;2022-08-01T02:39:14;1.83;;;1.73;;
21587;SDS011;10956;48.878;13.316;2022-08-01T02:41:45;1.57;;;1.47;;
21587;SDS011;10956;48.878;13.316;2022-08-01T02:44:16;2.07;;;1.70;;
21587;SDS011;10956;48.878;13.316;2022-08-01T02:46:56;1.47;;;1.37;;
21587;SDS011;10956;48.878;13.316;2022-08-01T02:49:27;2.10;;;1.90;;
21587;SDS011;10956;48.878;13.316;2022-08-01T02:51:56;2.60;;;2.03;;
21587;SDS011;10956;48.878;13.316;2022-08-01T02:54:24;1.70;;;1.60;;
21587;SDS011;10956;48.878;13.316;2022-08-01T02:56:51;2.13;;;1.60;;
21587;SDS011;10956;48.878;13.316;2022-08-01T02:59:20;2.07;;;1.87;;
21587;SDS011;10956;48.878;13.316;2022-08-01T03:01:50;1.70;;;1.60;;
21587;SDS011;10956;48.878;13.316;2022-08-01T03:04:18;1.60;;;1.50;;
21587;SDS011;10956;48.878;13.316;2022-08-01T03:06:45;2.23;;;1.67;;
21587;SDS011;10956;48.878;13.316;2022-08-01T03:09:12;2.20;;;1.63;;
21587;SDS011;10956;48.878;13.316;2022-08-01T03:11:39;1.63;;;1.53;;
21587;SDS011;10956;48.878;13.316;2022-08-01T03:14:07;1.43;;;1.33;;
21587;SDS011;10956;48.878;13.316;2022-08-01T03:16:34;1.83;;;1.60;;
21587;SDS011;10956;48.878;13.316;2022-08-01T03:19:03;1.63;;;1.53;;
21587;SDS011;10956;48.878;13.316;2022-08-01T03:21:29;1.50;;;1.40;;
21587;SDS011;10956;48.878;13.316;2022-08-01T03:23:57;3.13;;;1.50;;
21587;SDS011;10956;48.878;13.316;2022-08-01T03:26:26;1.50;;;1.40;;
21587;SDS011;10956;48.878;13.316;2022-08-01T03:28:55;1.60;;;1.50;;
21587;SDS011;10956;48.878;13.316;2022-08-01T03:31:22;2.73;;;1.60;;
21587;SDS011;10956;48.878;13.316;2022-08-01T03:33:50;1.50;;;1.40;;
21587;SDS011;10956;48.878;13.316;2022-08-01T03:36:15;2.37;;;1.90;;
21587;SDS011;10956;48.878;13.316;2022-08-01T03:38:42;2.03;;;1.90;;
21587;SDS011;10956;48.878;13.316;2022-08-01T03:41:12;2.10;;;2.00;;
21587;SDS011;10956;48.878;13.316;2022-08-01T03:43:46;1.67;;;1.57;;
21587;SDS011;10956;48.878;13.316;2022-08-01T03:46:19;2.07;;;1.60;;
21587;SDS011;10956;48.878;13.316;2022-08-01T03:48:51;8.87;;;2.20;;
21587;SDS011;10956;48.878;13.316;2022-08-01T03:51:20;4.93;;;1.70;;
21587;SDS011;10956;48.878;13.316;2022-08-01T03:53:47;1.90;;;1.80;;
21587;SDS011;10956;48.878;13.316;2022-08-01T03:56:16;2.50;;;1.70;;
21587;SDS011;10956;48.878;13.316;2022-08-01T03:58:45;2.10;;;1.90;;
21587;SDS011;10956;48.878;13.316;2022-08-01T04:01:11;2.00;;;1.70;;
21587;SDS011;10956;48.878;13.316;2022-08-01T04:03:36;2.50;;;2.30;;
21587;SDS011;10956;48.878;13.316;2022-08-01T04:06:06;2.40;;;2.20;;
21587;SDS011;10956;48.878;13.316;2022-08-01T04:08:36;2.77;;;2.20;;
21587;SDS011;10956;48.878;13.316;2022-08-01T04:11:03;2.07;;;1.87;;
21587;SDS011;10956;48.878;13.316;2022-08-01T04:13:29;2.20;;;2.00;;
21587;SDS011;10956;48.878;13.316;2022-08-01T04:15:55;2.03;;;1.90;;
21587;SDS011;10956;48.878;13.316;2022-08-01T04:18:21;1.80;;;1.70;;
21587;SDS011;10956;48.878;13.316;2022-08-01T04:20:46;1.80;;;1.70;;
21587;SDS011;10956;48.878;13.316;2022-08-01T04:23:12;1.70;;;1.60;;
21587;SDS011;10956;48.878;13.316;2022-08-01T04:25:40;1.60;;;1.50;;
21587;SDS011;10956;48.878;13.316;2022-08-01T04:28:08;2.17;;;1.70;;
21587;SDS011;10956;48.878;13.316;2022-08-01T04:30:41;1.73;;;1.63;;
21587;SDS011;10956;48.878;13.316;2022-08-01T04:33:09;1.63;;;1.53;;
21587;SDS011;10956;48.878;13.316;2022-08-01T04:35:38;1.70;;;1.60;;
21587;SDS011;10956;48.878;13.316;2022-08-01T04:38:06;1.90;;;1.80;;
21587;SDS011;10956;48.878;13.316;2022-08-01T04:40:34;1.80;;;1.60;;
21587;SDS011;10956;48.878;13.316;2022-08-01T04:43:01;1.73;;;1.63;;
21587;SDS011;10956;48.878;13.316;2022-08-01T04:45:27;1.67;;;1.50;;
21587;SDS011;10956;48.878;13.316;2022-08-01T04:47:53;1.70;;;1.60;;
21587;SDS011;10956;48.878;13.316;2022-08-01T04:50:19;1.60;;;1.50;;
21587;SDS011;10956;48.878;13.316;2022-08-01T04:52:46;1.60;;;1.50;;
21587;SDS011;10956;48.878;13.316;2022-08-01T04:55:12;2.00;;;1.90;;
21587;SDS011;10956;48.878;13.316;2022-08-01T04:57:41;1.50;;;1.40;;
21587;SDS011;10956;48.878;13.316;2022-08-01T05:00:08;2.07;;;1.80;;
21587;SDS011;10956;48.878;13.316;2022-08-01T05:02:35;1.80;;;1.70;;
21587;SDS011;10956;48.878;13.316;2022-08-01T05:05:00;1.93;;;1.57;;
21587;SDS011;10956;48.878;13.316;2022-08-01T05:07:26;1.73;;;1.63;;
21587;SDS011;10956;48.878;13.316;2022-08-01T05:09:51;1.43;;;1.33;;
21587;SDS011;10956;48.878;13.316;2022-08-01T05:12:17;1.60;;;1.50;;
21587;SDS011;10956;48.878;13.316;2022-08-01T05:14:43;1.93;;;1.80;;
21587;SDS011;10956;48.878;13.316;2022-08-01T05:17:08;1.83;;;1.73;;
21587;SDS011;10956;48.878;13.316;2022-08-01T05:19:35;2.03;;;1.80;;
21587;SDS011;10956;48.878;13.316;2022-08-01T05:22:02;1.70;;;1.60;;
21587;SDS011;10956;48.878;13.316;2022-08-01T05:24:33;1.80;;;1.70;;
21587;SDS011;10956;48.878;13.316;2022-08-01T05:26:59;1.80;;;1.67;;
21587;SDS011;10956;48.878;13.316;2022-08-01T05:29:27;2.87;;;2.00;;
21587;SDS011;10956;48.878;13.316;2022-08-01T05:31:53;2.10;;;1.90;;
21587;SDS011;10956;48.878;13.316;2022-08-01T05:34:19;2.87;;;1.90;;
21587;SDS011;10956;48.878;13.316;2022-08-01T05:36:45;2.20;;;2.00;;
21587;SDS011;10956;48.878;13.316;2022-08-01T05:39:10;2.00;;;1.90;;
21587;SDS011;10956;48.878;13.316;2022-08-01T05:41:36;1.90;;;1.80;;
21587;SDS011;10956;48.878;13.316;2022-08-01T05:44:02;1.67;;;1.57;;
21587;SDS011;10956;48.878;13.316;2022-08-01T05:46:28;2.00;;;1.80;;
21587;SDS011;10956;48.878;13.316;2022-08-01T05:48:55;3.67;;;2.23;;
21587;SDS011;10956;48.878;13.316;2022-08-01T05:51:24;5.27;;;2.83;;
21587;SDS011;10956;48.878;13.316;2022-08-01T05:53:50;5.93;;;3.03;;
21587;SDS011;10956;48.878;13.316;2022-08-01T05:56:15;3.27;;;2.13;;
21587;SDS011;10956;48.878;13.316;2022-08-01T05:58:41;2.40;;;2.03;;
21587;SDS011;10956;48.878;13.316;2022-08-01T06:01:06;2.30;;;2.10;;
21587;SDS011;10956;48.878;13.316;2022-08-01T06:03:32;2.20;;;2.00;;
21587;SDS011;10956;48.878;13.316;2022-08-01T06:05:58;2.60;;;2.00;;
21587;SDS011;10956;48.878;13.316;2022-08-01T06:08:24;2.57;;;2.27;;
21587;SDS011;10956;48.878;13.316;2022-08-01T06:10:50;3.07;;;2.10;;
21587;SDS011;10956;48.878;13.316;2022-08-01T06:13:15;2.00;;;1.70;;
21587;SDS011;10956;48.878;13.316;2022-08-01T06:15:43;2.23;;;1.97;;
21587;SDS011;10956;48.878;13.316;2022-08-01T06:18:08;2.00;;;1.90;;
21587;SDS011;10956;48.878;13.316;2022-08-01T06:20:33;2.63;;;2.20;;
21587;SDS011;10956;48.878;13.316;2022-08-01T06:22:59;2.27;;;2.07;;
21587;SDS011;10956;48.878;13.316;2022-08-01T06:25:24;2.20;;;2.00;;
21587;SDS011;10956;48.878;13.316;2022-08-01T06:27:49;2.57;;;2.37;;
21587;SDS011;10956;48.878;13.316;2022-08-01T06:30:15;2.17;;;2.03;;
21587;SDS011;10956;48.878;13.316;2022-08-01T06:32:40;2.20;;;2.00;;
21587;SDS011;10956;48.878;13.316;2022-08-01T06:35:06;1.77;;;1.67;;
21587;SDS011;10956;48.878;13.316;2022-08-01T06:37:32;2.10;;;1.90;;
21587;SDS011;10956;48.878;13.316;2022-08-01T06:40:01;2.10;;;2.00;;
21587;SDS011;10956;48.878;13.316;2022-08-01T06:42:31;2.10;;;1.90;;
21587;SDS011;10956;48.878;13.316;2022-08-01T06:45:01;2.10;;;1.90;;
21587;SDS011;10956;48.878;13.316;2022-08-01T06:47:27;2.20;;;2.00;;
21587;SDS011;10956;48.878;13.316;2022-08-01T06:49:53;2.40;;;2.20;;
21587;SDS011;10956;48.878;13.316;2022-08-01T06:52:18;2.17;;;1.97;;
21587;SDS011;10956;48.878;13.316;2022-08-01T06:54:43;2.37;;;2.10;;
21587;SDS011;10956;48.878;13.316;2022-08-01T06:57:09;2.40;;;2.20;;
21587;SDS011;10956;48.878;13.316;2022-08-01T06:59:34;4.20;;;2.83;;
21587;SDS011;10956;48.878;13.316;2022-08-01T07:02:00;2.87;;;2.53;;
21587;SDS011;10956;48.878;13.316;2022-08-01T07:04:26;2.57;;;2.07;;
21587;SDS011;10956;48.878;13.316;2022-08-01T07:06:51;2.93;;;2.30;;
21587;SDS011;10956;48.878;13.316;2022-08-01T07:09:17;2.90;;;2.17;;
21587;SDS011;10956;48.878;13.316;2022-08-01T07:11:42;4.20;;;3.03;;
21587;SDS011;10956;48.878;13.316;2022-08-01T07:14:08;5.57;;;2.90;;
21587;SDS011;10956;48.878;13.316;2022-08-01T07:16:33;3.03;;;1.90;;
21587;SDS011;10956;48.878;13.316;2022-08-01T07:18:58;2.87;;;2.00;;
21587;SDS011;10956;48.878;13.316;2022-08-01T07:21:24;4.60;;;2.10;;
21587;SDS011;10956;48.878;13.316;2022-08-01T07:23:49;2.63;;;2.00;;
21587;SDS011;10956;48.878;13.316;2022-08-01T07:26:15;2.37;;;2.00;;
21587;SDS011;10956;48.878;13.316;2022-08-01T07:28:40;2.10;;;1.90;;
21587;SDS011;10956;48.878;13.316;2022-08-01T07:31:05;2.80;;;2.60;;
21587;SDS011;10956;48.878;13.316;2022-08-01T07:33:31;2.87;;;2.47;;
21587;SDS011;10956;48.878;13.316;2022-08-01T07:35:56;2.90;;;2.20;;
21587;SDS011;10956;48.878;13.316;2022-08-01T07:38:21;2.23;;;2.00;;
21587;SDS011;10956;48.878;13.316;2022-08-01T07:40:47;1.73;;;1.63;;
21587;SDS011;10956;48.878;13.316;2022-08-01T07:43:13;2.73;;;2.53;;
21587;SDS011;10956;48.878;13.316;2022-08-01T07:45:39;2.83;;;2.53;;
21587;SDS011;10956;48.878;13.316;2022-08-01T07:48:06;2.60;;;2.40;;
21587;SDS011;10956;48.878;13.316;2022-08-01T07:50:32;2.50;;;2.30;;
21587;SDS011;10956;48.878;13.316;2022-08-01T07:52:59;2.03;;;1.93;;
21587;SDS011;10956;48.878;13.316;2022-08-01T07:55:25;1.90;;;1.80;;
21587;SDS011;10956;48.878;13.316;2022-08-01T07:57:51;2.70;;;2.50;;
21587;SDS011;10956;48.878;13.316;2022-08-01T08:00:17;2.50;;;2.20;;
21587;SDS011;10956;48.878;13.316;2022-08-01T08:02:43;4.33;;;3.10;;
21587;SDS011;10956;48.878;13.316;2022-08-01T08:05:09;3.20;;;2.40;;
21587;SDS011;10956;48.878;13.316;2022-08-01T08:07:35;2.67;;;2.40;;
21587;SDS011;10956;48.878;13.316;2022-08-01T08:10:00;4.53;;;2.57;;
21587;SDS011;10956;48.878;13.316;2022-08-01T08:12:26;2.47;;;2.27;;
21587;SDS011;10956;48.878;13.316;2022-08-01T08:14:51;2.63;;;2.40;;
21587;SDS011;10956;48.878;13.316;2022-08-01T08:17:17;2.50;;;2.30;;
21587;SDS011;10956;48.878;13.316;2022-08-01T08:19:42;2.57;;;2.37;;
21587;SDS011;10956;48.878;13.316;2022-08-01T08:22:08;2.20;;;2.00;;
21587;SDS011;10956;48.878;13.316;2022-08-01T08:24:34;2.43;;;2.23;;
21587;SDS011;10956;48.878;13.316;2022-08-01T08:27:01;2.27;;;1.90;;
21587;SDS011;10956;48.878;13.316;2022-08-01T08:29:28;2.50;;;2.30;;
21587;SDS011;10956;48.878;13.316;2022-08-01T08:31:57;2.13;;;2.03;;
21587;SDS011;10956;48.878;13.316;2022-08-01T08:34:23;2.20;;;2.00;;
21587;SDS011;10956;48.878;13.316;2022-08-01T08:36:49;2.50;;;1.80;;
21587;SDS011;10956;48.878;13.316;2022-08-01T08:39:15;1.90;;;1.80;;
21587;SDS011;10956;48.878;13.316;2022-08-01T08:41:42;1.97;;;1.73;;
21587;SDS011;10956;48.878;13.316;2022-08-01T08:44:08;1.70;;;1.60;;
21587;SDS011;10956;48.878;13.316;2022-08-01T08:46:38;1.60;;;1.50;;
21587;SDS011;10956;48.878;13.316;2022-08-01T08:49:06;1.30;;;1.20;;
21587;SDS011;10956;48.878;13.316;2022-08-01T08:51:32;2.77;;;1.40;;
21587;SDS011;10956;48.878;13.316;2022-08-01T08:53:59;1.70;;;1.30;;
21587;SDS011;10956;48.878;13.316;2022-08-01T08:56:27;1.23;;;1.13;;
21587;SDS011;10956;48.878;13.316;2022-08-01T08:58:58;2.22;;;1.55;;
21587;SDS011;10956;48.878;13.316;2022-08-01T09:01:24;2.53;;;1.50;;
21587;SDS011;10956;48.878;13.316;2022-08-01T09:03:49;1.30;;;1.20;;
21587;SDS011;10956;48.878;13.316;2022-08-01T09:06:15;1.50;;;1.40;;
21587;SDS011;10956;48.878;13.316;2022-08-01T09:08:40;1.40;;;1.30;;
21587;SDS011;10956;48.878;13.316;2022-08-01T09:11:06;1.30;;;1.20;;
21587;SDS011;10956;48.878;13.316;2022-08-01T09:13:31;1.52;;;1.30;;
21587;SDS011;10956;48.878;13.316;2022-08-01T09:15:57;1.63;;;1.13;;
21587;SDS011;10956;48.878;13.316;2022-08-01T09:21:27;1.25;;;1.15;;
21587;SDS011;10956;48.878;13.316;2022-08-01T09:23:51;1.48;;;1.38;;
21587;SDS011;10956;48.878;13.316;2022-08-01T09:26:28;1.30;;;1.20;;
21587;SDS011;10956;48.878;13.316;2022-08-01T09:28:55;2.00;;;1.48;;
21587;SDS011;10956;48.878;13.316;2022-08-01T09:31:21;1.30;;;1.20;;
21587;SDS011;10956;48.878;13.316;2022-08-01T09:33:54;1.40;;;1.30;;
21587;SDS011;10956;48.878;13.316;2022-08-01T09:36:23;1.55;;;1.30;;
21587;SDS011;10956;48.878;13.316;2022-08-01T09:38:50;1.42;;;1.27;;
21587;SDS011;10956;48.878;13.316;2022-08-01T09:41:17;1.00;;;1.00;;
21587;SDS011;10956;48.878;13.316;2022-08-01T09:43:54;1.15;;;1.10;;
21587;SDS011;10956;48.878;13.316;2022-08-01T09:46:19;2.03;;;1.33;;
21587;SDS011;10956;48.878;13.316;2022-08-01T09:49:01;1.40;;;1.30;;
21587;SDS011;10956;48.878;13.316;2022-08-01T09:51:30;1.75;;;1.35;;
21587;SDS011;10956;48.878;13.316;2022-08-01T09:54:04;1.70;;;1.60;;
21587;SDS011;10956;48.878;13.316;2022-08-01T09:56:40;2.07;;;1.20;;
21587;SDS011;10956;48.878;13.316;2022-08-01T09:59:08;1.13;;;1.08;;
21587;SDS011;10956;48.878;13.316;2022-08-01T10:01:44;1.35;;;1.27;;
21587;SDS011;10956;48.878;13.316;2022-08-01T10:04:12;1.50;;;1.40;;
21587;SDS011;10956;48.878;13.316;2022-08-01T10:06:41;1.73;;;1.63;;
21587;SDS011;10956;48.878;13.316;2022-08-01T10:09:08;1.53;;;1.23;;
21587;SDS011;10956;48.878;13.316;2022-08-01T10:11:36;1.25;;;1.13;;
21587;SDS011;10956;48.878;13.316;2022-08-01T10:14:04;1.33;;;1.20;;
21587;SDS011;10956;48.878;13.316;2022-08-01T10:16:29;1.30;;;1.20;;
21587;SDS011;10956;48.878;13.316;2022-08-01T10:18:57;1.38;;;1.27;;
21587;SDS011;10956;48.878;13.316;2022-08-01T10:21:23;1.63;;;1.52;;
21587;SDS011;10956;48.878;13.316;2022-08-01T10:23:52;1.60;;;1.27;;
21587;SDS011;10956;48.878;13.316;2022-08-01T10:26:20;1.50;;;1.20;;
21587;SDS011;10956;48.878;13.316;2022-08-01T10:28:49;1.15;;;1.10;;
21587;SDS011;10956;48.878;13.316;2022-08-01T10:31:16;1.52;;;1.30;;
21587;SDS011;10956;48.878;13.316;2022-08-01T10:33:42;1.70;;;1.50;;
21587;SDS011;10956;48.878;13.316;2022-08-01T10:36:09;1.30;;;1.20;;
21587;SDS011;10956;48.878;13.316;2022-08-01T10:38:35;1.60;;;1.50;;
21587;SDS011;10956;48.878;13.316;2022-08-01T10:41:02;1.60;;;1.50;;
21587;SDS011;10956;48.878;13.316;2022-08-01T10:43:28;1.50;;;1.40;;
21587;SDS011;10956;48.878;13.316;2022-08-01T10:45:54;1.58;;;1.48;;
21587;SDS011;10956;48.878;13.316;2022-08-01T10:48:22;1.30;;;1.20;;
21587;SDS011;10956;48.878;13.316;2022-08-01T10:50:55;1.20;;;1.10;;
21587;SDS011;10956;48.878;13.316;2022-08-01T10:53:25;1.17;;;1.10;;
21587;SDS011;10956;48.878;13.316;2022-08-01T10:55:52;0.90;;;0.90;;
21587;SDS011;10956;48.878;13.316;2022-08-01T10:58:29;1.65;;;1.38;;
21587;SDS011;10956;48.878;13.316;2022-08-01T11:14:26;1.30;;;1.20;;
21587;SDS011;10956;48.878;13.316;2022-08-01T11:16:52;1.40;;;1.30;;
21587;SDS011;10956;48.878;13.316;2022-08-01T11:19:17;1.40;;;1.30;;
21587;SDS011;10956;48.878;13.316;2022-08-01T11:32:47;2.53;;;1.52;;
21587;SDS011;10956;48.878;13.316;2022-08-01T11:35:13;1.08;;;1.08;;
21587;SDS011;10956;48.878;13.316;2022-08-01T11:37:39;1.15;;;1.10;;
21587;SDS011;10956;48.878;13.316;2022-08-01T11:42:40;1.40;;;1.30;;
21587;SDS011;10956;48.878;13.316;2022-08-01T11:45:06;1.40;;;1.30;;
21587;SDS011;10956;48.878;13.316;2022-08-01T11:47:47;1.27;;;1.13;;
21587;SDS011;10956;48.878;13.316;2022-08-01T11:50:30;0.90;;;0.90;;
21587;SDS011;10956;48.878;13.316;2022-08-01T11:53:00;1.30;;;1.20;;
21587;SDS011;10956;48.878;13.316;2022-08-01T11:55:27;1.20;;;1.10;;
21587;SDS011;10956;48.878;13.316;2022-08-01T11:58:06;1.17;;;1.10;;
21587;SDS011;10956;48.878;13.316;2022-08-01T12:00:32;4.68;;;1.63;;
21587;SDS011;10956;48.878;13.316;2022-08-01T12:03:05;1.20;;;1.10;;
21587;SDS011;10956;48.878;13.316;2022-08-01T12:05:33;1.40;;;1.27;;
21587;SDS011;10956;48.878;13.316;2022-08-01T12:08:01;1.15;;;1.00;;
21587;SDS011;10956;48.878;13.316;2022-08-01T12:10:28;1.10;;;1.08;;
21587;SDS011;10956;48.878;13.316;2022-08-01T12:13:01;1.20;;;1.05;;
21587;SDS011;10956;48.878;13.316;2022-08-01T12:15:29;1.25;;;1.15;;
21587;SDS011;10956;48.878;13.316;2022-08-01T12:17:57;1.33;;;1.23;;
21587;SDS011;10956;48.878;13.316;2022-08-01T12:20:25;1.30;;;1.20;;
21587;SDS011;10956;48.878;13.316;2022-08-01T12:22:53;0.98;;;0.98;;
21587;SDS011;10956;48.878;13.316;2022-08-01T12:25:20;2.13;;;1.50;;
21587;SDS011;10956;48.878;13.316;2022-08-01T12:27:46;3.15;;;1.92;;
21587;SDS011;10956;48.878;13.316;2022-08-01T12:30:13;3.30;;;1.77;;
21587;SDS011;10956;48.878;13.316;2022-08-01T12:32:41;2.08;;;1.70;;
21587;SDS011;10956;48.878;13.316;2022-08-01T12:35:08;1.77;;;1.52;;
21587;SDS011;10956;48.878;13.316;2022-08-01T12:37:42;2.72;;;1.50;;
21587;SDS011;10956;48.878;13.316;2022-08-01T12:40:09;2.75;;;1.25;;
21587;SDS011;10956;48.878;13.316;2022-08-01T12:42:39;1.30;;;1.20;;
21587;SDS011;10956;48.878;13.316;2022-08-01T12:45:07;1.55;;;1.40;;
21587;SDS011;10956;48.878;13.316;2022-08-01T12:47:34;1.55;;;1.45;;
21587;SDS011;10956;48.878;13.316;2022-08-01T12:50:02;2.00;;;1.40;;
21587;SDS011;10956;48.878;13.316;2022-08-01T12:52:31;1.35;;;1.25;;
21587;SDS011;10956;48.878;13.316;2022-08-01T12:55:10;1.23;;;1.10;;
21587;SDS011;10956;48.878;13.316;2022-08-01T12:57:39;1.83;;;1.50;;
21587;SDS011;10956;48.878;13.316;2022-08-01T13:00:10;0.95;;;0.90;;
21587;SDS011;10956;48.878;13.316;2022-08-01T13:02:38;1.17;;;1.08;;
21587;SDS011;10956;48.878;13.316;2022-08-01T13:05:05;1.20;;;1.10;;
21587;SDS011;10956;48.878;13.316;2022-08-01T13:07:38;1.23;;;0.95;;
21587;SDS011;10956;48.878;13.316;2022-08-01T13:10:06;1.17;;;1.00;;
21587;SDS011;10956;48.878;13.316;2022-08-01T13:12:32;0.90;;;0.90;;
21587;SDS011;10956;48.878;13.316;2022-08-01T13:14:58;1.17;;;1.08;;
21587;SDS011;10956;48.878;13.316;2022-08-01T13:17:30;0.90;;;0.90;;
21587;SDS011;10956;48.878;13.316;2022-08-01T13:20:00;0.93;;;0.82;;
21587;SDS011;10956;48.878;13.316;2022-08-01T13:22:36;1.30;;;1.10;;
21587;SDS011;10956;48.878;13.316;2022-08-01T13:25:15;2.30;;;1.30;;
21587;SDS011;10956;48.878;13.316;2022-08-01T13:27:42;1.10;;;1.00;;
21587;SDS011;10956;48.878;13.316;2022-08-01T13:30:14;0.98;;;0.98;;
21587;SDS011;10956;48.878;13.316;2022-08-01T13:32:39;1.23;;;0.98;;
21587;SDS011;10956;48.878;13.316;2022-08-01T13:35:06;1.08;;;0.95;;
21587;SDS011;10956;48.878;13.316;2022-08-01T13:37:33;2.03;;;1.00;;
21587;SDS011;10956;48.878;13.316;2022-08-01T13:39:58;0.90;;;0.90;;
21587;SDS011;10956;48.878;13.316;2022-08-01T13:42:24;0.70;;;0.70;;
21587;SDS011;10956;48.878;13.316;2022-08-01T13:44:49;1.10;;;0.88;;
21587;SDS011;10956;48.878;13.316;2022-08-01T13:47:14;2.25;;;1.10;;
21587;SDS011;10956;48.878;13.316;2022-08-01T13:49:40;0.60;;;0.60;;
21587;SDS011;10956;48.878;13.316;2022-08-01T13:52:05;1.98;;;0.88;;
21587;SDS011;10956;48.878;13.316;2022-08-01T13:54:31;2.70;;;1.35;;
21587;SDS011;10956;48.878;13.316;2022-08-01T13:56:57;0.80;;;0.80;;
21587;SDS011;10956;48.878;13.316;2022-08-01T13:59:22;1.15;;;1.05;;
21587;SDS011;10956;48.878;13.316;2022-08-01T14:01:48;1.10;;;1.00;;
21587;SDS011;10956;48.878;13.316;2022-08-01T14:04:13;0.88;;;0.80;;
21587;SDS011;10956;48.878;13.316;2022-08-01T14:06:39;1.10;;;1.00;;
21587;SDS011;10956;48.878;13.316;2022-08-01T14:09:04;0.95;;;0.80;;
21587;SDS011;10956;48.878;13.316;2022-08-01T14:11:30;0.98;;;0.80;;
21587;SDS011;10956;48.878;13.316;2022-08-01T14:13:56;1.00;;;0.90;;
21587;SDS011;10956;48.878;13.316;2022-08-01T14:16:22;1.27;;;1.17;;
21587;SDS011;10956;48.878;13.316;2022-08-01T14:18:48;1.33;;;1.23;;
21587;SDS011;10956;48.878;13.316;2022-08-01T14:21:13;1.30;;;1.13;;
21587;SDS011;10956;48.878;13.316;2022-08-01T14:23:39;0.82;;;0.82;;
21587;SDS011;10956;48.878;13.316;2022-08-01T14:26:05;1.20;;;1.05;;
21587;SDS011;10956;48.878;13.316;2022-08-01T14:28:31;0.80;;;0.80;;
21587;SDS011;10956;48.878;13.316;2022-08-01T14:30:56;0.70;;;0.70;;
21587;SDS011;10956;48.878;13.316;2022-08-01T14:33:22;2.45;;;0.90;;
21587;SDS011;10956;48.878;13.316;2022-08-01T14:35:48;1.38;;;0.90;;
21587;SDS011;10956;48.878;13.316;2022-08-01T14:38:13;0.70;;;0.70;;
21587;SDS011;10956;48.878;13.316;2022-08-01T14:40:39;0.85;;;0.80;;
21587;SDS011;10956;48.878;13.316;2022-08-01T14:43:05;1.77;;;1.25;;
21587;SDS011;10956;48.878;13.316;2022-08-01T14:45:31;1.52;;;0.95;;
21587;SDS011;10956;48.878;13.316;2022-08-01T14:47:57;0.65;;;0.65;;
21587;SDS011;10956;48.878;13.316;2022-08-01T14:50:23;1.10;;;0.90;;
21587;SDS011;10956;48.878;13.316;2022-08-01T14:52:51;0.88;;;0.88;;
21587;SDS011;10956;48.878;13.316;2022-08-01T14:55:17;0.70;;;0.70;;
21587;SDS011;10956;48.878;13.316;2022-08-01T14:57:42;1.23;;;1.08;;
21587;SDS011;10956;48.878;13.316;2022-08-01T15:00:09;0.93;;;0.85;;
21587;SDS011;10956;48.878;13.316;2022-08-01T15:02:41;0.85;;;0.85;;
21587;SDS011;10956;48.878;13.316;2022-08-01T15:05:06;0.70;;;0.70;;
21587;SDS011;10956;48.878;13.316;2022-08-01T15:07:32;0.60;;;0.60;;